sensor_id;sensor_type;location;lat;lon;timestamp;P1;durP1;ratioP1;P2;durP2;ratioP2
56413;SDS011;42318;48.452;19.526;2023-08-01T00:03:44;1.42;;;0.85;;
56413;SDS011;42318;48.452;19.526;2023-08-01T00:08:44;1.75;;;1.02;;
56413;SDS011;42318;48.452;19.526;2023-08-01T00:13:45;1.00;;;0.90;;
56413;SDS011;42318;48.452;19.526;2023-08-01T00:18:46;1.73;;;0.82;;
56413;SDS011;42318;48.452;19.526;2023-08-01T00:23:47;1.42;;;0.80;;
56413;SDS011;42318;48.452;19.526;2023-08-01T00:28:48;1.73;;;0.85;;
56413;SDS011;42318;48.452;19.526;2023-08-01T00:33:49;1.42;;;1.08;;
56413;SDS011;42318;48.452;19.526;2023-08-01T00:38:50;1.17;;;0.98;;
56413;SDS011;42318;48.452;19.526;2023-08-01T00:43:50;1.00;;;0.73;;
56413;SDS011;42318;48.452;19.526;2023-08-01T00:48:51;1.52;;;1.00;;
56413;SDS011;42318;48.452;19.526;2023-08-01T00:53:53;1.52;;;1.00;;
56413;SDS011;42318;48.452;19.526;2023-08-01T00:58:54;2.25;;;0.90;;
56413;SDS011;42318;48.452;19.526;2023-08-01T01:03:55;1.83;;;1.10;;
56413;SDS011;42318;48.452;19.526;2023-08-01T01:08:56;1.77;;;1.00;;
56413;SDS011;42318;48.452;19.526;2023-08-01T01:13:57;1.02;;;0.90;;
56413;SDS011;42318;48.452;19.526;2023-08-01T01:18:57;1.15;;;0.70;;
56413;SDS011;42318;48.452;19.526;2023-08-01T01:23:58;1.67;;;1.05;;
56413;SDS011;42318;48.452;19.526;2023-08-01T01:29:01;1.45;;;0.90;;
56413;SDS011;42318;48.452;19.526;2023-08-01T01:34:03;1.63;;;0.80;;
56413;SDS011;42318;48.452;19.526;2023-08-01T01:39:04;1.60;;;0.77;;
56413;SDS011;42318;48.452;19.526;2023-08-01T01:44:05;1.00;;;0.80;;
56413;SDS011;42318;48.452;19.526;2023-08-01T01:49:06;1.20;;;0.82;;
56413;SDS011;42318;48.452;19.526;2023-08-01T01:54:07;1.23;;;0.73;;
56413;SDS011;42318;48.452;19.526;2023-08-01T01:59:07;1.02;;;0.70;;
56413;SDS011;42318;48.452;19.526;2023-08-01T02:04:08;1.30;;;0.80;;
56413;SDS011;42318;48.452;19.526;2023-08-01T02:09:09;1.05;;;0.82;;
56413;SDS011;42318;48.452;19.526;2023-08-01T02:14:10;1.70;;;1.00;;
56413;SDS011;42318;48.452;19.526;2023-08-01T02:19:10;1.13;;;0.80;;
56413;SDS011;42318;48.452;19.526;2023-08-01T02:24:11;1.52;;;0.80;;
56413;SDS011;42318;48.452;19.526;2023-08-01T02:29:12;1.50;;;0.90;;
56413;SDS011;42318;48.452;19.526;2023-08-01T02:34:13;1.30;;;0.90;;
56413;SDS011;42318;48.452;19.526;2023-08-01T02:39:13;1.23;;;0.88;;
56413;SDS011;42318;48.452;19.526;2023-08-01T02:44:14;1.88;;;0.80;;
56413;SDS011;42318;48.452;19.526;2023-08-01T02:49:15;1.85;;;0.98;;
56413;SDS011;42318;48.452;19.526;2023-08-01T02:54:16;1.15;;;0.80;;
56413;SDS011;42318;48.452;19.526;2023-08-01T02:59:16;1.02;;;0.85;;
56413;SDS011;42318;48.452;19.526;2023-08-01T03:04:20;1.45;;;1.00;;
56413;SDS011;42318;48.452;19.526;2023-08-01T03:09:21;1.10;;;0.80;;
56413;SDS011;42318;48.452;19.526;2023-08-01T03:14:22;1.08;;;0.73;;
56413;SDS011;42318;48.452;19.526;2023-08-01T03:19:22;1.05;;;0.75;;
56413;SDS011;42318;48.452;19.526;2023-08-01T03:24:24;0.98;;;0.70;;
56413;SDS011;42318;48.452;19.526;2023-08-01T03:29:25;1.08;;;0.70;;
56413;SDS011;42318;48.452;19.526;2023-08-01T03:34:26;1.30;;;0.82;;
56413;SDS011;42318;48.452;19.526;2023-08-01T03:39:27;1.50;;;0.75;;
56413;SDS011;42318;48.452;19.526;2023-08-01T03:44:28;1.40;;;1.00;;
56413;SDS011;42318;48.452;19.526;2023-08-01T03:49:28;0.95;;;0.80;;
56413;SDS011;42318;48.452;19.526;2023-08-01T03:54:29;1.42;;;0.82;;
56413;SDS011;42318;48.452;19.526;2023-08-01T03:59:30;0.63;;;0.57;;
56413;SDS011;42318;48.452;19.526;2023-08-01T04:04:31;1.17;;;0.80;;
56413;SDS011;42318;48.452;19.526;2023-08-01T04:09:31;1.25;;;0.93;;
56413;SDS011;42318;48.452;19.526;2023-08-01T04:14:33;1.73;;;1.27;;
56413;SDS011;42318;48.452;19.526;2023-08-01T04:19:34;0.90;;;0.80;;
56413;SDS011;42318;48.452;19.526;2023-08-01T04:24:35;1.42;;;0.85;;
56413;SDS011;42318;48.452;19.526;2023-08-01T04:29:35;0.75;;;0.60;;
56413;SDS011;42318;48.452;19.526;2023-08-01T04:34:36;1.27;;;0.85;;
56413;SDS011;42318;48.452;19.526;2023-08-01T04:39:37;0.82;;;0.70;;
56413;SDS011;42318;48.452;19.526;2023-08-01T04:44:38;1.30;;;0.80;;
56413;SDS011;42318;48.452;19.526;2023-08-01T04:49:38;1.20;;;0.70;;
56413;SDS011;42318;48.452;19.526;2023-08-01T04:54:39;0.85;;;0.63;;
56413;SDS011;42318;48.452;19.526;2023-08-01T04:59:40;1.00;;;0.70;;
56413;SDS011;42318;48.452;19.526;2023-08-01T05:04:41;1.08;;;0.75;;
56413;SDS011;42318;48.452;19.526;2023-08-01T05:09:42;0.70;;;0.70;;
56413;SDS011;42318;48.452;19.526;2023-08-01T05:14:42;0.82;;;0.57;;
56413;SDS011;42318;48.452;19.526;2023-08-01T05:19:43;1.50;;;0.65;;
56413;SDS011;42318;48.452;19.526;2023-08-01T05:24:44;0.95;;;0.70;;
56413;SDS011;42318;48.452;19.526;2023-08-01T05:29:45;0.68;;;0.68;;
56413;SDS011;42318;48.452;19.526;2023-08-01T05:34:45;1.00;;;0.63;;
56413;SDS011;42318;48.452;19.526;2023-08-01T05:39:46;1.08;;;0.80;;
56413;SDS011;42318;48.452;19.526;2023-08-01T05:44:47;0.88;;;0.70;;
56413;SDS011;42318;48.452;19.526;2023-08-01T05:49:48;1.08;;;0.75;;
56413;SDS011;42318;48.452;19.526;2023-08-01T05:54:49;0.82;;;0.80;;
56413;SDS011;42318;48.452;19.526;2023-08-01T05:59:50;1.15;;;0.90;;
56413;SDS011;42318;48.452;19.526;2023-08-01T06:04:51;0.77;;;0.60;;
56413;SDS011;42318;48.452;19.526;2023-08-01T06:09:51;1.10;;;0.80;;
56413;SDS011;42318;48.452;19.526;2023-08-01T06:14:52;0.82;;;0.70;;
56413;SDS011;42318;48.452;19.526;2023-08-01T06:19:53;0.88;;;0.60;;
56413;SDS011;42318;48.452;19.526;2023-08-01T06:24:55;0.60;;;0.60;;
56413;SDS011;42318;48.452;19.526;2023-08-01T06:29:56;1.02;;;0.70;;
56413;SDS011;42318;48.452;19.526;2023-08-01T06:34:56;1.55;;;0.90;;
56413;SDS011;42318;48.452;19.526;2023-08-01T06:39:57;1.92;;;0.73;;
56413;SDS011;42318;48.452;19.526;2023-08-01T06:44:59;1.90;;;0.90;;
56413;SDS011;42318;48.452;19.526;2023-08-01T06:50:00;1.05;;;0.90;;
56413;SDS011;42318;48.452;19.526;2023-08-01T06:55:01;0.93;;;0.68;;
56413;SDS011;42318;48.452;19.526;2023-08-01T07:00:02;0.80;;;0.60;;
56413;SDS011;42318;48.452;19.526;2023-08-01T07:05:03;1.00;;;0.65;;
56413;SDS011;42318;48.452;19.526;2023-08-01T07:10:05;1.17;;;0.90;;
56413;SDS011;42318;48.452;19.526;2023-08-01T07:15:07;1.15;;;0.80;;
56413;SDS011;42318;48.452;19.526;2023-08-01T07:20:08;0.77;;;0.70;;
56413;SDS011;42318;48.452;19.526;2023-08-01T07:25:09;0.80;;;0.80;;
56413;SDS011;42318;48.452;19.526;2023-08-01T07:30:11;0.88;;;0.60;;
56413;SDS011;42318;48.452;19.526;2023-08-01T07:35:13;1.17;;;0.82;;
56413;SDS011;42318;48.452;19.526;2023-08-01T07:40:14;1.35;;;0.63;;
56413;SDS011;42318;48.452;19.526;2023-08-01T07:45:15;1.20;;;0.60;;
56413;SDS011;42318;48.452;19.526;2023-08-01T07:50:15;1.27;;;0.70;;
56413;SDS011;42318;48.452;19.526;2023-08-01T07:55:16;1.25;;;0.80;;
56413;SDS011;42318;48.452;19.526;2023-08-01T08:00:18;0.90;;;0.68;;
56413;SDS011;42318;48.452;19.526;2023-08-01T08:05:19;0.95;;;0.73;;
56413;SDS011;42318;48.452;19.526;2023-08-01T08:10:20;1.77;;;0.77;;
56413;SDS011;42318;48.452;19.526;2023-08-01T08:15:21;1.15;;;0.80;;
56413;SDS011;42318;48.452;19.526;2023-08-01T08:20:23;1.13;;;0.70;;
56413;SDS011;42318;48.452;19.526;2023-08-01T08:25:24;1.27;;;0.70;;
56413;SDS011;42318;48.452;19.526;2023-08-01T08:30:25;1.00;;;0.50;;
56413;SDS011;42318;48.452;19.526;2023-08-01T08:35:25;1.45;;;1.00;;
56413;SDS011;42318;48.452;19.526;2023-08-01T08:40:26;0.68;;;0.57;;
56413;SDS011;42318;48.452;19.526;2023-08-01T08:45:27;0.77;;;0.68;;
56413;SDS011;42318;48.452;19.526;2023-08-01T08:50:32;0.90;;;0.75;;
56413;SDS011;42318;48.452;19.526;2023-08-01T08:55:35;0.95;;;0.80;;
56413;SDS011;42318;48.452;19.526;2023-08-01T09:00:36;0.88;;;0.80;;
56413;SDS011;42318;48.452;19.526;2023-08-01T09:05:40;1.10;;;0.60;;
56413;SDS011;42318;48.452;19.526;2023-08-01T09:10:48;0.68;;;0.52;;
56413;SDS011;42318;48.452;19.526;2023-08-01T09:15:49;0.90;;;0.80;;
56413;SDS011;42318;48.452;19.526;2023-08-01T09:20:52;0.68;;;0.55;;
56413;SDS011;42318;48.452;19.526;2023-08-01T09:25:53;1.15;;;0.70;;
56413;SDS011;42318;48.452;19.526;2023-08-01T09:30:54;0.90;;;0.70;;
56413;SDS011;42318;48.452;19.526;2023-08-01T09:35:57;1.08;;;0.90;;
56413;SDS011;42318;48.452;19.526;2023-08-01T09:40:58;1.20;;;0.73;;
56413;SDS011;42318;48.452;19.526;2023-08-01T09:45:58;0.90;;;0.65;;
56413;SDS011;42318;48.452;19.526;2023-08-01T09:51:07;1.30;;;0.80;;
56413;SDS011;42318;48.452;19.526;2023-08-01T09:56:09;0.95;;;0.73;;
56413;SDS011;42318;48.452;19.526;2023-08-01T10:01:15;1.15;;;0.80;;
56413;SDS011;42318;48.452;19.526;2023-08-01T10:06:18;0.80;;;0.63;;
56413;SDS011;42318;48.452;19.526;2023-08-01T10:11:22;0.98;;;0.70;;
56413;SDS011;42318;48.452;19.526;2023-08-01T10:16:23;0.73;;;0.60;;
56413;SDS011;42318;48.452;19.526;2023-08-01T10:21:24;1.27;;;0.88;;
56413;SDS011;42318;48.452;19.526;2023-08-01T10:26:28;0.52;;;0.52;;
56413;SDS011;42318;48.452;19.526;2023-08-01T10:31:29;1.13;;;0.90;;
56413;SDS011;42318;48.452;19.526;2023-08-01T10:36:30;0.57;;;0.50;;
56413;SDS011;42318;48.452;19.526;2023-08-01T10:41:35;1.10;;;0.70;;
56413;SDS011;42318;48.452;19.526;2023-08-01T10:52:15;0.60;;;0.60;;
56413;SDS011;42318;48.452;19.526;2023-08-01T10:57:20;0.85;;;0.65;;
56413;SDS011;42318;48.452;19.526;2023-08-01T11:02:21;1.52;;;0.90;;
56413;SDS011;42318;48.452;19.526;2023-08-01T11:07:24;1.30;;;0.90;;
56413;SDS011;42318;48.452;19.526;2023-08-01T11:12:25;1.30;;;0.88;;
56413;SDS011;42318;48.452;19.526;2023-08-01T11:17:26;1.30;;;0.80;;
56413;SDS011;42318;48.452;19.526;2023-08-01T11:22:27;1.20;;;0.77;;
56413;SDS011;42318;48.452;19.526;2023-08-01T11:27:27;1.15;;;0.70;;
56413;SDS011;42318;48.452;19.526;2023-08-01T11:32:35;1.15;;;0.80;;
56413;SDS011;42318;48.452;19.526;2023-08-01T11:37:36;1.48;;;0.73;;
56413;SDS011;42318;48.452;19.526;2023-08-01T11:42:37;1.50;;;0.88;;
56413;SDS011;42318;48.452;19.526;2023-08-01T11:47:44;1.23;;;0.88;;
56413;SDS011;42318;48.452;19.526;2023-08-01T11:52:46;1.08;;;0.90;;
56413;SDS011;42318;48.452;19.526;2023-08-01T11:57:51;0.75;;;0.70;;
56413;SDS011;42318;48.452;19.526;2023-08-01T12:03:06;2.03;;;0.80;;
56413;SDS011;42318;48.452;19.526;2023-08-01T12:08:09;1.30;;;1.00;;
56413;SDS011;42318;48.452;19.526;2023-08-01T12:13:20;1.27;;;0.80;;
56413;SDS011;42318;48.452;19.526;2023-08-01T12:23:23;1.88;;;0.88;;
56413;SDS011;42318;48.452;19.526;2023-08-01T12:28:24;0.73;;;0.52;;
56413;SDS011;42318;48.452;19.526;2023-08-01T12:33:25;0.60;;;0.50;;
56413;SDS011;42318;48.452;19.526;2023-08-01T12:38:26;1.30;;;0.88;;
56413;SDS011;42318;48.452;19.526;2023-08-01T12:43:27;0.82;;;0.65;;
56413;SDS011;42318;48.452;19.526;2023-08-01T12:48:28;1.20;;;1.10;;
56413;SDS011;42318;48.452;19.526;2023-08-01T12:53:29;1.00;;;0.73;;
56413;SDS011;42318;48.452;19.526;2023-08-01T12:58:31;0.90;;;0.80;;
56413;SDS011;42318;48.452;19.526;2023-08-01T13:03:32;0.90;;;0.73;;
56413;SDS011;42318;48.452;19.526;2023-08-01T13:08:33;0.93;;;0.60;;
56413;SDS011;42318;48.452;19.526;2023-08-01T13:13:33;0.98;;;0.70;;
56413;SDS011;42318;48.452;19.526;2023-08-01T13:18:34;1.15;;;0.73;;
56413;SDS011;42318;48.452;19.526;2023-08-01T13:23:35;0.70;;;0.60;;
56413;SDS011;42318;48.452;19.526;2023-08-01T13:28:36;0.63;;;0.60;;
56413;SDS011;42318;48.452;19.526;2023-08-01T13:33:37;0.75;;;0.70;;
56413;SDS011;42318;48.452;19.526;2023-08-01T13:38:38;1.00;;;0.90;;
56413;SDS011;42318;48.452;19.526;2023-08-01T13:43:38;0.90;;;0.70;;
56413;SDS011;42318;48.452;19.526;2023-08-01T13:48:39;1.05;;;0.75;;
56413;SDS011;42318;48.452;19.526;2023-08-01T13:53:40;0.90;;;0.63;;
56413;SDS011;42318;48.452;19.526;2023-08-01T13:58:43;0.73;;;0.65;;
56413;SDS011;42318;48.452;19.526;2023-08-01T14:03:44;1.13;;;0.70;;
56413;SDS011;42318;48.452;19.526;2023-08-01T14:08:46;0.95;;;0.80;;
56413;SDS011;42318;48.452;19.526;2023-08-01T14:13:46;0.77;;;0.60;;
56413;SDS011;42318;48.452;19.526;2023-08-01T14:18:47;0.82;;;0.52;;
56413;SDS011;42318;48.452;19.526;2023-08-01T14:23:48;0.65;;;0.50;;
56413;SDS011;42318;48.452;19.526;2023-08-01T14:28:49;1.33;;;0.70;;
56413;SDS011;42318;48.452;19.526;2023-08-01T14:33:50;1.02;;;0.63;;
56413;SDS011;42318;48.452;19.526;2023-08-01T14:38:51;1.52;;;1.10;;
56413;SDS011;42318;48.452;19.526;2023-08-01T14:43:55;0.77;;;0.70;;
56413;SDS011;42318;48.452;19.526;2023-08-01T14:48:55;1.08;;;0.57;;
56413;SDS011;42318;48.452;19.526;2023-08-01T14:53:56;0.70;;;0.57;;
56413;SDS011;42318;48.452;19.526;2023-08-01T14:58:57;0.90;;;0.60;;
56413;SDS011;42318;48.452;19.526;2023-08-01T15:03:59;1.58;;;0.93;;
56413;SDS011;42318;48.452;19.526;2023-08-01T15:09:00;1.00;;;0.60;;
56413;SDS011;42318;48.452;19.526;2023-08-01T15:14:01;0.68;;;0.65;;
56413;SDS011;42318;48.452;19.526;2023-08-01T15:19:01;0.90;;;0.70;;
56413;SDS011;42318;48.452;19.526;2023-08-01T15:24:02;0.98;;;0.70;;
56413;SDS011;42318;48.452;19.526;2023-08-01T15:29:03;0.98;;;0.70;;
56413;SDS011;42318;48.452;19.526;2023-08-01T15:34:04;1.13;;;0.80;;
56413;SDS011;42318;48.452;19.526;2023-08-01T15:39:05;1.20;;;0.80;;
56413;SDS011;42318;48.452;19.526;2023-08-01T15:44:05;0.77;;;0.70;;
56413;SDS011;42318;48.452;19.526;2023-08-01T15:49:06;1.08;;;0.70;;
56413;SDS011;42318;48.452;19.526;2023-08-01T15:54:08;0.88;;;0.70;;
56413;SDS011;42318;48.452;19.526;2023-08-01T15:59:09;1.10;;;0.60;;
56413;SDS011;42318;48.452;19.526;2023-08-01T16:04:10;1.10;;;0.80;;
56413;SDS011;42318;48.452;19.526;2023-08-01T16:09:11;0.75;;;0.63;;
56413;SDS011;42318;48.452;19.526;2023-08-01T16:14:11;1.13;;;0.80;;
56413;SDS011;42318;48.452;19.526;2023-08-01T16:19:12;0.80;;;0.68;;
56413;SDS011;42318;48.452;19.526;2023-08-01T16:24:13;0.70;;;0.65;;
56413;SDS011;42318;48.452;19.526;2023-08-01T16:29:14;0.98;;;0.80;;
56413;SDS011;42318;48.452;19.526;2023-08-01T16:34:14;0.95;;;0.63;;
56413;SDS011;42318;48.452;19.526;2023-08-01T16:39:15;1.00;;;0.77;;
56413;SDS011;42318;48.452;19.526;2023-08-01T16:44:16;0.65;;;0.60;;
56413;SDS011;42318;48.452;19.526;2023-08-01T16:49:17;4.95;;;1.20;;
56413;SDS011;42318;48.452;19.526;2023-08-01T16:54:17;2.50;;;1.30;;
56413;SDS011;42318;48.452;19.526;2023-08-01T16:59:18;2.35;;;1.30;;
56413;SDS011;42318;48.452;19.526;2023-08-01T17:04:19;2.13;;;1.20;;
56413;SDS011;42318;48.452;19.526;2023-08-01T17:09:20;7.30;;;1.70;;
56413;SDS011;42318;48.452;19.526;2023-08-01T17:14:21;3.30;;;1.45;;
56413;SDS011;42318;48.452;19.526;2023-08-01T17:19:22;9.35;;;1.73;;
56413;SDS011;42318;48.452;19.526;2023-08-01T17:24:22;3.22;;;1.58;;
56413;SDS011;42318;48.452;19.526;2023-08-01T17:29:23;7.90;;;2.28;;
56413;SDS011;42318;48.452;19.526;2023-08-01T17:34:24;4.38;;;1.80;;
56413;SDS011;42318;48.452;19.526;2023-08-01T17:39:25;3.47;;;1.35;;
56413;SDS011;42318;48.452;19.526;2023-08-01T17:44:27;2.03;;;1.13;;
56413;SDS011;42318;48.452;19.526;2023-08-01T17:49:28;3.97;;;1.45;;
56413;SDS011;42318;48.452;19.526;2023-08-01T17:54:29;5.68;;;1.08;;
56413;SDS011;42318;48.452;19.526;2023-08-01T17:59:29;2.67;;;1.27;;
56413;SDS011;42318;48.452;19.526;2023-08-01T18:04:30;6.10;;;1.45;;
56413;SDS011;42318;48.452;19.526;2023-08-01T18:09:32;4.55;;;1.45;;
56413;SDS011;42318;48.452;19.526;2023-08-01T18:14:33;6.30;;;1.10;;
56413;SDS011;42318;48.452;19.526;2023-08-01T18:19:37;6.07;;;0.90;;
56413;SDS011;42318;48.452;19.526;2023-08-01T18:24:38;6.75;;;2.15;;
56413;SDS011;42318;48.452;19.526;2023-08-01T18:29:39;5.82;;;1.25;;
56413;SDS011;42318;48.452;19.526;2023-08-01T18:34:40;7.10;;;1.60;;
56413;SDS011;42318;48.452;19.526;2023-08-01T18:39:40;4.78;;;1.20;;
56413;SDS011;42318;48.452;19.526;2023-08-01T18:44:41;2.58;;;1.10;;
56413;SDS011;42318;48.452;19.526;2023-08-01T18:49:42;3.30;;;1.30;;
56413;SDS011;42318;48.452;19.526;2023-08-01T18:54:43;1.77;;;1.15;;
56413;SDS011;42318;48.452;19.526;2023-08-01T18:59:44;8.35;;;1.50;;
56413;SDS011;42318;48.452;19.526;2023-08-01T19:04:46;5.50;;;1.73;;
56413;SDS011;42318;48.452;19.526;2023-08-01T19:09:48;2.28;;;1.23;;
56413;SDS011;42318;48.452;19.526;2023-08-01T19:14:48;5.28;;;1.40;;
56413;SDS011;42318;48.452;19.526;2023-08-01T19:19:49;4.72;;;1.50;;
56413;SDS011;42318;48.452;19.526;2023-08-01T19:24:50;4.93;;;1.10;;
56413;SDS011;42318;48.452;19.526;2023-08-01T19:29:52;11.57;;;1.25;;
56413;SDS011;42318;48.452;19.526;2023-08-01T19:34:54;4.75;;;1.10;;
56413;SDS011;42318;48.452;19.526;2023-08-01T19:39:55;4.20;;;1.25;;
56413;SDS011;42318;48.452;19.526;2023-08-01T19:44:56;3.50;;;1.40;;
56413;SDS011;42318;48.452;19.526;2023-08-01T19:49:56;2.90;;;1.50;;
56413;SDS011;42318;48.452;19.526;2023-08-01T19:54:57;5.03;;;1.63;;
56413;SDS011;42318;48.452;19.526;2023-08-01T19:59:58;5.03;;;1.40;;
56413;SDS011;42318;48.452;19.526;2023-08-01T20:04:59;3.55;;;1.20;;
56413;SDS011;42318;48.452;19.526;2023-08-01T20:10:00;3.13;;;1.15;;
56413;SDS011;42318;48.452;19.526;2023-08-01T20:15:01;2.75;;;1.13;;
56413;SDS011;42318;48.452;19.526;2023-08-01T20:20:02;2.20;;;1.05;;
56413;SDS011;42318;48.452;19.526;2023-08-01T20:25:04;6.50;;;1.58;;
56413;SDS011;42318;48.452;19.526;2023-08-01T20:30:06;3.92;;;1.30;;
56413;SDS011;42318;48.452;19.526;2023-08-01T20:35:07;3.95;;;0.95;;
56413;SDS011;42318;48.452;19.526;2023-08-01T20:40:09;2.72;;;1.00;;
56413;SDS011;42318;48.452;19.526;2023-08-01T20:45:11;3.58;;;0.82;;
56413;SDS011;42318;48.452;19.526;2023-08-01T20:50:12;5.00;;;1.60;;
56413;SDS011;42318;48.452;19.526;2023-08-01T20:55:12;5.72;;;1.55;;
56413;SDS011;42318;48.452;19.526;2023-08-01T21:00:13;2.30;;;1.35;;
56413;SDS011;42318;48.452;19.526;2023-08-01T21:05:14;3.83;;;0.90;;
56413;SDS011;42318;48.452;19.526;2023-08-01T21:10:15;4.18;;;0.98;;
56413;SDS011;42318;48.452;19.526;2023-08-01T21:15:16;4.30;;;1.20;;
56413;SDS011;42318;48.452;19.526;2023-08-01T21:20:17;16.15;;;2.08;;
56413;SDS011;42318;48.452;19.526;2023-08-01T21:25:18;2.10;;;1.08;;
56413;SDS011;42318;48.452;19.526;2023-08-01T21:30:19;10.90;;;1.80;;
56413;SDS011;42318;48.452;19.526;2023-08-01T21:35:19;14.25;;;1.40;;
56413;SDS011;42318;48.452;19.526;2023-08-01T21:40:20;8.27;;;1.50;;
56413;SDS011;42318;48.452;19.526;2023-08-01T21:45:21;9.10;;;1.25;;
56413;SDS011;42318;48.452;19.526;2023-08-01T21:50:24;6.32;;;1.58;;
56413;SDS011;42318;48.452;19.526;2023-08-01T21:55:25;6.75;;;1.60;;
56413;SDS011;42318;48.452;19.526;2023-08-01T22:00:26;5.85;;;0.90;;
56413;SDS011;42318;48.452;19.526;2023-08-01T22:05:27;7.07;;;1.48;;
56413;SDS011;42318;48.452;19.526;2023-08-01T22:10:28;7.60;;;1.08;;
56413;SDS011;42318;48.452;19.526;2023-08-01T22:15:29;4.55;;;1.20;;
56413;SDS011;42318;48.452;19.526;2023-08-01T22:20:30;4.15;;;1.10;;
56413;SDS011;42318;48.452;19.526;2023-08-01T22:25:30;3.97;;;1.25;;
56413;SDS011;42318;48.452;19.526;2023-08-01T22:30:31;2.30;;;1.30;;
56413;SDS011;42318;48.452;19.526;2023-08-01T22:35:32;5.82;;;1.30;;
56413;SDS011;42318;48.452;19.526;2023-08-01T22:40:32;4.78;;;1.92;;
56413;SDS011;42318;48.452;19.526;2023-08-01T22:45:33;7.43;;;1.40;;
56413;SDS011;42318;48.452;19.526;2023-08-01T22:50:34;6.70;;;1.50;;
56413;SDS011;42318;48.452;19.526;2023-08-01T22:55:35;4.00;;;1.42;;
56413;SDS011;42318;48.452;19.526;2023-08-01T23:00:36;2.38;;;1.40;;
56413;SDS011;42318;48.452;19.526;2023-08-01T23:05:36;2.75;;;1.40;;
56413;SDS011;42318;48.452;19.526;2023-08-01T23:10:37;3.42;;;1.17;;
56413;SDS011;42318;48.452;19.526;2023-08-01T23:15:38;5.82;;;1.40;;
56413;SDS011;42318;48.452;19.526;2023-08-01T23:20:39;3.53;;;1.45;;
56413;SDS011;42318;48.452;19.526;2023-08-01T23:25:40;4.07;;;1.25;;
56413;SDS011;42318;48.452;19.526;2023-08-01T23:30:41;3.88;;;1.48;;
56413;SDS011;42318;48.452;19.526;2023-08-01T23:35:44;4.13;;;1.40;;
56413;SDS011;42318;48.452;19.526;2023-08-01T23:40:45;6.75;;;1.63;;
56413;SDS011;42318;48.452;19.526;2023-08-01T23:45:46;2.13;;;1.30;;
56413;SDS011;42318;48.452;19.526;2023-08-01T23:50:48;5.45;;;1.38;;
56413;SDS011;42318;48.452;19.526;2023-08-01T23:55:55;3.35;;;1.33;;
